Lovejoy, North Carolina
Current Conditions -  °F | °C
As of 4:35 PM on Monday 24 Nov 2014 (Local Time) from KVUJ Reporting Station
Broken Clouds Broken Clouds  
Wind Chill: 70°   Ceiling: 12000
Heat Index: 70°   Visibility: 10mi
Dew Point: 61°   Wind: 14mph
Humidity: 73%   Direction: 190°S
Pressure: 29.82"   Gusts: NA
Location:  35.4086°N, 79.9566°W
Report Text: KVUJ 242135Z AUTO 19012KT 10SM BKN120 21/16 A2982 RMK AO2 LTG DSNT SW T02100160
Loading
Personal Weather Stations






























Interactive Weather Map New forecast layout! Learn more

10-Day Weather Forecast

Advertisements
Track Severe Weather on mobile